sensor_id;sensor_type;location;lat;lon;timestamp;pressure;altitude;pressure_sealevel;temperature;humidity
5296;BME280;2670;42.720;23.336;2023-04-15T00:02:00;-22652.22;;;7.22;99.04
5296;BME280;2670;42.720;23.336;2023-04-15T00:04:27;-22651.19;;;7.19;100.00
5296;BME280;2670;42.720;23.336;2023-04-15T00:06:57;-22651.47;;;7.20;100.00
5296;BME280;2670;42.720;23.336;2023-04-15T00:09:24;-22655.66;;;7.34;100.00
5296;BME280;2670;42.720;23.336;2023-04-15T00:11:51;-22655.19;;;7.33;100.00
5296;BME280;2670;42.720;23.336;2023-04-15T00:14:18;-22654.75;;;7.31;100.00
5296;BME280;2670;42.720;23.336;2023-04-15T00:16:44;-22659.22;;;7.46;100.00
5296;BME280;2670;42.720;23.336;2023-04-15T00:19:11;-22654.91;;;7.32;100.00
5296;BME280;2670;42.720;23.336;2023-04-15T00:21:38;-22654.75;;;7.31;100.00
5296;BME280;2670;42.720;23.336;2023-04-15T00:24:06;-22656.09;;;7.36;100.00
5296;BME280;2670;42.720;23.336;2023-04-15T00:26:33;-22655.94;;;7.35;100.00
5296;BME280;2670;42.720;23.336;2023-04-15T00:29:00;-22655.94;;;7.35;100.00
5296;BME280;2670;42.720;23.336;2023-04-15T00:31:26;-22655.78;;;7.35;100.00
5296;BME280;2670;42.720;23.336;2023-04-15T00:33:53;-22654.91;;;7.32;100.00
5296;BME280;2670;42.720;23.336;2023-04-15T00:36:20;-22652.97;;;7.25;100.00
5296;BME280;2670;42.720;23.336;2023-04-15T00:38:47;-22652.38;;;7.23;100.00
5296;BME280;2670;42.720;23.336;2023-04-15T00:41:15;-22645.38;;;6.99;100.00
5296;BME280;2670;42.720;23.336;2023-04-15T00:43:43;-22647.91;;;7.08;100.00
5296;BME280;2670;42.720;23.336;2023-04-15T00:46:12;-22652.69;;;7.24;100.00
5296;BME280;2670;42.720;23.336;2023-04-15T00:48:41;-22655.19;;;7.33;100.00
5296;BME280;2670;42.720;23.336;2023-04-15T00:51:08;-22658.78;;;7.45;100.00
5296;BME280;2670;42.720;23.336;2023-04-15T00:53:35;-22654.31;;;7.30;100.00
5296;BME280;2670;42.720;23.336;2023-04-15T00:56:01;-22653.25;;;7.26;100.00
5296;BME280;2670;42.720;23.336;2023-04-15T00:58:30;-22654.16;;;7.29;100.00
5296;BME280;2670;42.720;23.336;2023-04-15T01:00:57;-22652.38;;;7.23;100.00
5296;BME280;2670;42.720;23.336;2023-04-15T01:03:24;-22653.56;;;7.27;100.00
5296;BME280;2670;42.720;23.336;2023-04-15T01:05:52;-22649.69;;;7.14;100.00
5296;BME280;2670;42.720;23.336;2023-04-15T01:08:25;-22647.91;;;7.08;100.00
5296;BME280;2670;42.720;23.336;2023-04-15T01:10:52;-22646.56;;;7.03;100.00
5296;BME280;2670;42.720;23.336;2023-04-15T01:13:19;-22650.28;;;7.16;100.00
5296;BME280;2670;42.720;23.336;2023-04-15T01:15:48;-22650.16;;;7.15;100.00
5296;BME280;2670;42.720;23.336;2023-04-15T01:18:16;-22650.00;;;7.15;100.00
5296;BME280;2670;42.720;23.336;2023-04-15T01:20:43;-22647.16;;;7.05;100.00
5296;BME280;2670;42.720;23.336;2023-04-15T01:23:10;-22646.13;;;7.02;100.00
5296;BME280;2670;42.720;23.336;2023-04-15T01:25:39;-22644.19;;;6.95;100.00
5296;BME280;2670;42.720;23.336;2023-04-15T01:28:07;-22642.84;;;6.90;100.00
5296;BME280;2670;42.720;23.336;2023-04-15T01:30:34;-22642.56;;;6.89;100.00
5296;BME280;2670;42.720;23.336;2023-04-15T01:33:01;-22646.13;;;7.02;100.00
5296;BME280;2670;42.720;23.336;2023-04-15T01:35:28;-22643.00;;;6.91;100.00
5296;BME280;2670;42.720;23.336;2023-04-15T01:37:59;-22642.25;;;6.88;100.00
5296;BME280;2670;42.720;23.336;2023-04-15T01:40:29;-22637.22;;;6.71;100.00
5296;BME280;2670;42.720;23.336;2023-04-15T01:42:57;-22641.81;;;6.87;100.00
5296;BME280;2670;42.720;23.336;2023-04-15T01:45:23;-22638.41;;;6.75;100.00
5296;BME280;2670;42.720;23.336;2023-04-15T01:47:50;-22634.81;;;6.63;100.00
5296;BME280;2670;42.720;23.336;2023-04-15T01:50:17;-22639.13;;;6.78;100.00
5296;BME280;2670;42.720;23.336;2023-04-15T01:52:44;-22640.03;;;6.81;100.00
5296;BME280;2670;42.720;23.336;2023-04-15T01:55:12;-22636.31;;;6.68;100.00
5296;BME280;2670;42.720;23.336;2023-04-15T01:57:38;-22636.00;;;6.67;100.00
5296;BME280;2670;42.720;23.336;2023-04-15T02:00:08;-22637.34;;;6.71;100.00
5296;BME280;2670;42.720;23.336;2023-04-15T02:02:35;-22637.94;;;6.73;100.00
5296;BME280;2670;42.720;23.336;2023-04-15T02:05:03;-22639.00;;;6.77;100.00
5296;BME280;2670;42.720;23.336;2023-04-15T02:07:30;-22632.88;;;6.56;100.00
5296;BME280;2670;42.720;23.336;2023-04-15T02:09:57;-22629.91;;;6.46;100.00
5296;BME280;2670;42.720;23.336;2023-04-15T02:12:24;-22625.16;;;6.30;100.00
5296;BME280;2670;42.720;23.336;2023-04-15T02:14:51;-22626.34;;;6.34;100.00
5296;BME280;2670;42.720;23.336;2023-04-15T02:17:19;-22625.44;;;6.31;100.00
5296;BME280;2670;42.720;23.336;2023-04-15T02:19:46;-22619.66;;;6.11;100.00
5296;BME280;2670;42.720;23.336;2023-04-15T02:22:13;-22622.03;;;6.19;100.00
5296;BME280;2670;42.720;23.336;2023-04-15T02:24:43;-22623.81;;;6.25;100.00
5296;BME280;2670;42.720;23.336;2023-04-15T02:27:10;-22619.78;;;6.11;100.00
5296;BME280;2670;42.720;23.336;2023-04-15T02:29:40;-22620.38;;;6.13;100.00
5296;BME280;2670;42.720;23.336;2023-04-15T02:32:07;-22618.91;;;6.08;100.00
5296;BME280;2670;42.720;23.336;2023-04-15T02:34:35;-22618.75;;;6.08;100.00
5296;BME280;2670;42.720;23.336;2023-04-15T02:37:03;-22614.72;;;5.94;100.00
5296;BME280;2670;42.720;23.336;2023-04-15T02:39:30;-22614.28;;;5.92;100.00
5296;BME280;2670;42.720;23.336;2023-04-15T02:41:57;-22610.25;;;5.79;100.00
5296;BME280;2670;42.720;23.336;2023-04-15T02:44:25;-22610.41;;;5.79;100.00
5296;BME280;2670;42.720;23.336;2023-04-15T02:46:51;-22610.72;;;5.80;100.00
5296;BME280;2670;42.720;23.336;2023-04-15T02:49:19;-22611.59;;;5.83;100.00
5296;BME280;2670;42.720;23.336;2023-04-15T02:51:47;-22609.81;;;5.77;100.00
5296;BME280;2670;42.720;23.336;2023-04-15T02:54:15;-22604.16;;;5.58;100.00
5296;BME280;2670;42.720;23.336;2023-04-15T02:56:42;-22603.13;;;5.54;100.00
5296;BME280;2670;42.720;23.336;2023-04-15T02:59:09;-22601.03;;;5.47;100.00
5296;BME280;2670;42.720;23.336;2023-04-15T03:01:36;-22598.03;;;5.37;100.00
5296;BME280;2670;42.720;23.336;2023-04-15T03:04:03;-22601.03;;;5.47;100.00
5296;BME280;2670;42.720;23.336;2023-04-15T03:06:32;-22595.81;;;5.29;100.00
5296;BME280;2670;42.720;23.336;2023-04-15T03:09:00;-22597.16;;;5.34;100.00
5296;BME280;2670;42.720;23.336;2023-04-15T03:11:28;-22598.50;;;5.38;100.00
5296;BME280;2670;42.720;23.336;2023-04-15T03:13:55;-22592.97;;;5.19;100.00
5296;BME280;2670;42.720;23.336;2023-04-15T03:16:22;-22592.53;;;5.18;100.00
5296;BME280;2670;42.720;23.336;2023-04-15T03:18:49;-22590.91;;;5.12;100.00
5296;BME280;2670;42.720;23.336;2023-04-15T03:21:16;-22590.44;;;5.11;100.00
5296;BME280;2670;42.720;23.336;2023-04-15T03:23:44;-22596.72;;;5.32;100.00
5296;BME280;2670;42.720;23.336;2023-04-15T03:26:22;-22595.97;;;5.30;100.00
5296;BME280;2670;42.720;23.336;2023-04-15T03:28:49;-22590.31;;;5.10;100.00
5296;BME280;2670;42.720;23.336;2023-04-15T03:31:16;-22589.41;;;5.07;100.00
5296;BME280;2670;42.720;23.336;2023-04-15T03:33:43;-22591.78;;;5.15;100.00
5296;BME280;2670;42.720;23.336;2023-04-15T03:36:10;-22588.50;;;5.04;100.00
5296;BME280;2670;42.720;23.336;2023-04-15T03:38:36;-22581.50;;;4.80;100.00
5296;BME280;2670;42.720;23.336;2023-04-15T03:41:03;-22582.25;;;4.83;100.00
5296;BME280;2670;42.720;23.336;2023-04-15T03:43:31;-22585.22;;;4.93;100.00
5296;BME280;2670;42.720;23.336;2023-04-15T03:45:58;-22583.75;;;4.88;100.00
5296;BME280;2670;42.720;23.336;2023-04-15T03:48:25;-22583.88;;;4.88;100.00
5296;BME280;2670;42.720;23.336;2023-04-15T03:50:52;-22583.88;;;4.88;100.00
5296;BME280;2670;42.720;23.336;2023-04-15T03:53:20;-22583.59;;;4.87;100.00
5296;BME280;2670;42.720;23.336;2023-04-15T03:55:47;-22582.84;;;4.85;100.00
5296;BME280;2670;42.720;23.336;2023-04-15T03:58:14;-22586.88;;;4.98;100.00
5296;BME280;2670;42.720;23.336;2023-04-15T04:00:42;-22581.97;;;4.82;100.00
5296;BME280;2670;42.720;23.336;2023-04-15T04:03:08;-22581.06;;;4.79;100.00
5296;BME280;2670;42.720;23.336;2023-04-15T04:05:36;-22583.75;;;4.88;100.00
5296;BME280;2670;42.720;23.336;2023-04-15T04:08:05;-22587.63;;;5.01;100.00
5296;BME280;2670;42.720;23.336;2023-04-15T04:10:32;-22585.97;;;4.95;100.00
5296;BME280;2670;42.720;23.336;2023-04-15T04:12:59;-22585.69;;;4.94;100.00
5296;BME280;2670;42.720;23.336;2023-04-15T04:15:26;-22591.94;;;5.16;100.00
5296;BME280;2670;42.720;23.336;2023-04-15T04:17:54;-22589.41;;;5.07;100.00
5296;BME280;2670;42.720;23.336;2023-04-15T04:20:21;-22586.88;;;4.98;100.00
5296;BME280;2670;42.720;23.336;2023-04-15T04:22:48;-22587.03;;;4.99;100.00
5296;BME280;2670;42.720;23.336;2023-04-15T04:25:15;-22587.16;;;4.99;100.00
5296;BME280;2670;42.720;23.336;2023-04-15T04:27:42;-22590.31;;;5.10;100.00
5296;BME280;2670;42.720;23.336;2023-04-15T04:30:10;-22593.13;;;5.20;100.00
5296;BME280;2670;42.720;23.336;2023-04-15T04:32:37;-22591.66;;;5.15;100.00
5296;BME280;2670;42.720;23.336;2023-04-15T04:35:05;-22595.50;;;5.28;100.00
5296;BME280;2670;42.720;23.336;2023-04-15T04:37:32;-22598.50;;;5.38;100.00
5296;BME280;2670;42.720;23.336;2023-04-15T04:39:59;-22599.09;;;5.40;100.00
5296;BME280;2670;42.720;23.336;2023-04-15T04:42:26;-22596.56;;;5.32;100.00
5296;BME280;2670;42.720;23.336;2023-04-15T04:44:52;-22598.94;;;5.40;100.00
5296;BME280;2670;42.720;23.336;2023-04-15T04:47:19;-22598.50;;;5.38;100.00
5296;BME280;2670;42.720;23.336;2023-04-15T04:49:46;-22599.25;;;5.41;100.00
5296;BME280;2670;42.720;23.336;2023-04-15T04:52:14;-22597.31;;;5.34;100.00
5296;BME280;2670;42.720;23.336;2023-04-15T04:54:41;-22597.59;;;5.35;100.00
5296;BME280;2670;42.720;23.336;2023-04-15T04:57:07;-22598.34;;;5.38;100.00
5296;BME280;2670;42.720;23.336;2023-04-15T04:59:34;-22596.25;;;5.31;100.00
5296;BME280;2670;42.720;23.336;2023-04-15T05:02:01;-22599.53;;;5.42;100.00
5296;BME280;2670;42.720;23.336;2023-04-15T05:04:28;-22601.31;;;5.48;100.00
5296;BME280;2670;42.720;23.336;2023-04-15T05:06:56;-22600.88;;;5.46;100.00
5296;BME280;2670;42.720;23.336;2023-04-15T05:09:25;-22604.00;;;5.57;100.00
5296;BME280;2670;42.720;23.336;2023-04-15T05:11:51;-22604.00;;;5.57;100.00
5296;BME280;2670;42.720;23.336;2023-04-15T05:14:18;-22605.06;;;5.61;100.00
5296;BME280;2670;42.720;23.336;2023-04-15T05:16:45;-22608.47;;;5.72;100.00
5296;BME280;2670;42.720;23.336;2023-04-15T05:19:11;-22608.63;;;5.73;100.00
5296;BME280;2670;42.720;23.336;2023-04-15T05:21:38;-22610.72;;;5.80;100.00
5296;BME280;2670;42.720;23.336;2023-04-15T05:24:05;-22609.81;;;5.77;100.00
5296;BME280;2670;42.720;23.336;2023-04-15T05:26:33;-22613.53;;;5.90;100.00
5296;BME280;2670;42.720;23.336;2023-04-15T05:29:00;-22615.94;;;5.98;100.00
5296;BME280;2670;42.720;23.336;2023-04-15T05:31:26;-22612.94;;;5.88;100.00
5296;BME280;2670;42.720;23.336;2023-04-15T05:33:53;-22619.06;;;6.09;100.00
5296;BME280;2670;42.720;23.336;2023-04-15T05:36:20;-22621.00;;;6.15;100.00
5296;BME280;2670;42.720;23.336;2023-04-15T05:38:47;-22624.72;;;6.28;100.00
5296;BME280;2670;42.720;23.336;2023-04-15T05:41:14;-22630.34;;;6.47;100.00
5296;BME280;2670;42.720;23.336;2023-04-15T05:43:42;-22630.34;;;6.47;100.00
5296;BME280;2670;42.720;23.336;2023-04-15T05:46:09;-22629.16;;;6.43;100.00
5296;BME280;2670;42.720;23.336;2023-04-15T05:48:35;-22634.81;;;6.63;100.00
5296;BME280;2670;42.720;23.336;2023-04-15T05:51:02;-22634.97;;;6.63;100.00
5296;BME280;2670;42.720;23.336;2023-04-15T05:53:29;-22640.19;;;6.81;100.00
5296;BME280;2670;42.720;23.336;2023-04-15T05:55:56;-22643.59;;;6.93;100.00
5296;BME280;2670;42.720;23.336;2023-04-15T05:58:23;-22644.50;;;6.96;100.00
5296;BME280;2670;42.720;23.336;2023-04-15T06:00:51;-22644.66;;;6.96;100.00
5296;BME280;2670;42.720;23.336;2023-04-15T06:03:18;-22650.16;;;7.15;98.27
5296;BME280;2670;42.720;23.336;2023-04-15T06:05:44;-22653.88;;;7.28;95.97
5296;BME280;2670;42.720;23.336;2023-04-15T06:08:11;-22654.75;;;7.31;96.86
5296;BME280;2670;42.720;23.336;2023-04-15T06:10:38;-22655.34;;;7.33;97.26
5296;BME280;2670;42.720;23.336;2023-04-15T06:13:05;-22659.97;;;7.49;99.02
5296;BME280;2670;42.720;23.336;2023-04-15T06:15:31;-22664.13;;;7.63;94.68
5296;BME280;2670;42.720;23.336;2023-04-15T06:17:59;-22659.66;;;7.48;95.29
5296;BME280;2670;42.720;23.336;2023-04-15T06:20:26;-22664.13;;;7.63;95.54
5296;BME280;2670;42.720;23.336;2023-04-15T06:22:53;-22665.31;;;7.67;96.43
5296;BME280;2670;42.720;23.336;2023-04-15T06:25:20;-22670.50;;;7.85;94.14
5296;BME280;2670;42.720;23.336;2023-04-15T06:27:46;-22669.75;;;7.83;96.82
5296;BME280;2670;42.720;23.336;2023-04-15T06:30:13;-22676.31;;;8.05;93.64
5296;BME280;2670;42.720;23.336;2023-04-15T06:32:40;-22675.84;;;8.04;95.82
5296;BME280;2670;42.720;23.336;2023-04-15T06:35:08;-22678.22;;;8.12;96.52
5296;BME280;2670;42.720;23.336;2023-04-15T06:37:36;-22681.50;;;8.23;93.50
5296;BME280;2670;42.720;23.336;2023-04-15T06:40:03;-22681.81;;;8.24;91.30
5296;BME280;2670;42.720;23.336;2023-04-15T06:42:30;-22683.13;;;8.29;95.92
5296;BME280;2670;42.720;23.336;2023-04-15T06:44:57;-22684.03;;;8.32;95.56
5296;BME280;2670;42.720;23.336;2023-04-15T06:47:23;-22686.69;;;8.41;93.13
5296;BME280;2670;42.720;23.336;2023-04-15T06:49:50;-22691.00;;;8.56;91.67
5296;BME280;2670;42.720;23.336;2023-04-15T06:52:18;-22693.38;;;8.64;90.71
5296;BME280;2670;42.720;23.336;2023-04-15T06:54:45;-22692.94;;;8.62;90.32
5296;BME280;2670;42.720;23.336;2023-04-15T06:57:12;-22695.47;;;8.71;92.11
5296;BME280;2670;42.720;23.336;2023-04-15T06:59:38;-22698.56;;;8.82;89.90
5296;BME280;2670;42.720;23.336;2023-04-15T07:02:09;-22700.22;;;8.87;92.04
5296;BME280;2670;42.720;23.336;2023-04-15T07:04:37;-22700.66;;;8.89;92.41
5296;BME280;2670;42.720;23.336;2023-04-15T07:07:04;-22704.66;;;9.03;92.55
5296;BME280;2670;42.720;23.336;2023-04-15T07:09:33;-22706.16;;;9.08;93.22
5296;BME280;2670;42.720;23.336;2023-04-15T07:12:00;-22710.00;;;9.21;92.70
5296;BME280;2670;42.720;23.336;2023-04-15T07:14:27;-22711.94;;;9.28;93.07
5296;BME280;2670;42.720;23.336;2023-04-15T07:16:54;-22717.88;;;9.48;98.41
5296;BME280;2670;42.720;23.336;2023-04-15T07:19:21;-22722.59;;;9.64;96.89
5296;BME280;2670;42.720;23.336;2023-04-15T07:21:48;-22721.56;;;9.61;92.25
5296;BME280;2670;42.720;23.336;2023-04-15T07:24:15;-22726.47;;;9.78;92.84
5296;BME280;2670;42.720;23.336;2023-04-15T07:26:45;-22730.31;;;9.91;92.07
5296;BME280;2670;42.720;23.336;2023-04-15T07:29:12;-22733.28;;;10.01;87.60
5296;BME280;2670;42.720;23.336;2023-04-15T07:31:39;-22733.56;;;10.02;88.04
5296;BME280;2670;42.720;23.336;2023-04-15T07:34:06;-22731.22;;;9.94;89.71
5296;BME280;2670;42.720;23.336;2023-04-15T07:36:33;-22735.94;;;10.10;85.40
5296;BME280;2670;42.720;23.336;2023-04-15T07:38:59;-22740.09;;;10.25;86.20
5296;BME280;2670;42.720;23.336;2023-04-15T07:41:28;-22749.16;;;10.56;90.35
5296;BME280;2670;42.720;23.336;2023-04-15T07:43:56;-22753.59;;;10.71;87.29
5296;BME280;2670;42.720;23.336;2023-04-15T07:46:23;-22755.97;;;10.79;81.97
5296;BME280;2670;42.720;23.336;2023-04-15T07:48:51;-22758.03;;;10.86;83.35
5296;BME280;2670;42.720;23.336;2023-04-15T07:51:18;-22763.22;;;11.04;77.61
5296;BME280;2670;42.720;23.336;2023-04-15T07:53:45;-22768.84;;;11.23;73.97
5296;BME280;2670;42.720;23.336;2023-04-15T07:56:12;-22772.53;;;11.36;77.02
5296;BME280;2670;42.720;23.336;2023-04-15T07:58:39;-22776.38;;;11.50;70.22
5296;BME280;2670;42.720;23.336;2023-04-15T08:01:08;-22780.81;;;11.65;69.93
5296;BME280;2670;42.720;23.336;2023-04-15T08:03:35;-22781.84;;;11.68;69.26
5296;BME280;2670;42.720;23.336;2023-04-15T08:06:01;-22782.59;;;11.71;67.40
5296;BME280;2670;42.720;23.336;2023-04-15T08:08:28;-22780.22;;;11.63;65.55
5296;BME280;2670;42.720;23.336;2023-04-15T08:10:55;-22778.16;;;11.56;65.58
5296;BME280;2670;42.720;23.336;2023-04-15T08:13:22;-22781.56;;;11.67;64.86
5296;BME280;2670;42.720;23.336;2023-04-15T08:16:15;-22785.84;;;11.82;66.81
5296;BME280;2670;42.720;23.336;2023-04-15T08:18:42;-22791.47;;;12.02;72.08
5296;BME280;2670;42.720;23.336;2023-04-15T08:21:09;-22795.19;;;12.14;71.46
5296;BME280;2670;42.720;23.336;2023-04-15T08:23:36;-22797.09;;;12.21;70.11
5296;BME280;2670;42.720;23.336;2023-04-15T08:26:03;-22805.97;;;12.52;71.36
5296;BME280;2670;42.720;23.336;2023-04-15T08:28:30;-22812.75;;;12.75;66.92
5296;BME280;2670;42.720;23.336;2023-04-15T08:30:57;-22818.97;;;12.96;62.75
5296;BME280;2670;42.720;23.336;2023-04-15T08:33:25;-22820.75;;;13.03;61.82
5296;BME280;2670;42.720;23.336;2023-04-15T08:35:51;-22814.97;;;12.83;64.72
5296;BME280;2670;42.720;23.336;2023-04-15T08:38:18;-22814.09;;;12.80;61.64
5296;BME280;2670;42.720;23.336;2023-04-15T08:40:45;-22818.81;;;12.96;59.85
5296;BME280;2670;42.720;23.336;2023-04-15T08:43:14;-22825.03;;;13.17;58.67
5296;BME280;2670;42.720;23.336;2023-04-15T08:45:44;-22824.88;;;13.17;57.42
5296;BME280;2670;42.720;23.336;2023-04-15T08:48:14;-22825.75;;;13.20;60.91
5296;BME280;2670;42.720;23.336;2023-04-15T08:50:43;-22823.09;;;13.11;58.47
5296;BME280;2670;42.720;23.336;2023-04-15T08:53:10;-22818.09;;;12.93;59.30
5296;BME280;2670;42.720;23.336;2023-04-15T08:55:41;-22819.56;;;12.99;57.04
5296;BME280;2670;42.720;23.336;2023-04-15T08:58:09;-22818.81;;;12.96;58.27
5296;BME280;2670;42.720;23.336;2023-04-15T09:00:36;-22821.03;;;13.04;57.96
5296;BME280;2670;42.720;23.336;2023-04-15T09:03:03;-22820.28;;;13.01;57.07
5296;BME280;2670;42.720;23.336;2023-04-15T09:05:31;-22820.00;;;13.00;58.48
5296;BME280;2670;42.720;23.336;2023-04-15T09:08:00;-22826.19;;;13.21;60.72
5296;BME280;2670;42.720;23.336;2023-04-15T09:10:27;-22835.94;;;13.55;58.97
5296;BME280;2670;42.720;23.336;2023-04-15T09:12:55;-22848.50;;;13.99;59.96
5296;BME280;2670;42.720;23.336;2023-04-15T09:15:23;-22854.09;;;14.18;56.13
5296;BME280;2670;42.720;23.336;2023-04-15T09:17:50;-22860.59;;;14.40;52.92
5296;BME280;2670;42.720;23.336;2023-04-15T09:20:17;-22861.31;;;14.43;53.11
5296;BME280;2670;42.720;23.336;2023-04-15T09:22:46;-22861.19;;;14.42;51.97
5296;BME280;2670;42.720;23.336;2023-04-15T09:25:28;-22867.38;;;14.64;48.68
5296;BME280;2670;42.720;23.336;2023-04-15T09:27:58;-22868.09;;;14.66;48.59
5296;BME280;2670;42.720;23.336;2023-04-15T09:30:26;-22864.28;;;14.53;50.52
5296;BME280;2670;42.720;23.336;2023-04-15T09:32:58;-22865.47;;;14.57;49.19
5296;BME280;2670;42.720;23.336;2023-04-15T09:35:26;-22863.97;;;14.52;51.09
5296;BME280;2670;42.720;23.336;2023-04-15T09:38:01;-22867.66;;;14.65;49.90
5296;BME280;2670;42.720;23.336;2023-04-15T09:40:33;-22874.75;;;14.89;47.57
5296;BME280;2670;42.720;23.336;2023-04-15T09:43:01;-22872.69;;;14.82;48.26
5296;BME280;2670;42.720;23.336;2023-04-15T09:45:28;-22876.38;;;14.95;49.53
5296;BME280;2670;42.720;23.336;2023-04-15T09:47:56;-22884.91;;;15.25;48.38
5296;BME280;2670;42.720;23.336;2023-04-15T09:50:26;-22886.53;;;15.30;46.42
5296;BME280;2670;42.720;23.336;2023-04-15T09:52:53;-22889.78;;;15.41;46.34
5296;BME280;2670;42.720;23.336;2023-04-15T09:55:20;-22890.22;;;15.43;45.50
5296;BME280;2670;42.720;23.336;2023-04-15T09:57:49;-22887.41;;;15.33;44.01
5296;BME280;2670;42.720;23.336;2023-04-15T10:00:16;-22888.75;;;15.38;46.94
5296;BME280;2670;42.720;23.336;2023-04-15T10:02:42;-22887.13;;;15.32;46.75
5296;BME280;2670;42.720;23.336;2023-04-15T10:05:10;-22881.97;;;15.14;45.02
5296;BME280;2670;42.720;23.336;2023-04-15T10:07:39;-22879.31;;;15.05;44.46
5296;BME280;2670;42.720;23.336;2023-04-15T10:10:07;-22879.59;;;15.06;44.16
5296;BME280;2670;42.720;23.336;2023-04-15T10:12:36;-22878.44;;;15.02;44.82
5296;BME280;2670;42.720;23.336;2023-04-15T10:15:05;-22881.22;;;15.12;45.06
5296;BME280;2670;42.720;23.336;2023-04-15T10:17:32;-22889.47;;;15.40;44.29
5296;BME280;2670;42.720;23.336;2023-04-15T10:20:00;-22894.63;;;15.58;42.69
5296;BME280;2670;42.720;23.336;2023-04-15T10:22:27;-22894.03;;;15.56;42.25
5296;BME280;2670;42.720;23.336;2023-04-15T10:24:55;-22890.50;;;15.44;42.38
5296;BME280;2670;42.720;23.336;2023-04-15T10:27:22;-22897.13;;;15.67;43.80
5296;BME280;2670;42.720;23.336;2023-04-15T10:29:50;-22902.72;;;15.86;40.96
5296;BME280;2670;42.720;23.336;2023-04-15T10:32:19;-22904.78;;;15.93;40.84
5296;BME280;2670;42.720;23.336;2023-04-15T10:34:47;-22906.56;;;16.00;40.92
5296;BME280;2670;42.720;23.336;2023-04-15T10:37:19;-22910.53;;;16.13;40.47
5296;BME280;2670;42.720;23.336;2023-04-15T10:39:46;-22913.91;;;16.25;40.74
5296;BME280;2670;42.720;23.336;2023-04-15T10:42:15;-22913.19;;;16.23;39.56
5296;BME280;2670;42.720;23.336;2023-04-15T10:44:43;-22913.19;;;16.23;41.83
5296;BME280;2670;42.720;23.336;2023-04-15T10:47:13;-22916.25;;;16.33;40.03
5296;BME280;2670;42.720;23.336;2023-04-15T10:49:45;-22916.56;;;16.34;42.45
5296;BME280;2670;42.720;23.336;2023-04-15T10:52:14;-22917.88;;;16.39;42.23
5296;BME280;2670;42.720;23.336;2023-04-15T10:54:42;-22918.47;;;16.41;41.33
5296;BME280;2670;42.720;23.336;2023-04-15T10:57:13;-22918.19;;;16.40;40.49
5296;BME280;2670;42.720;23.336;2023-04-15T11:00:01;-22919.06;;;16.43;40.95
5296;BME280;2670;42.720;23.336;2023-04-15T11:02:42;-22922.28;;;16.54;41.11
5296;BME280;2670;42.720;23.336;2023-04-15T11:05:11;-22919.50;;;16.44;39.92
5296;BME280;2670;42.720;23.336;2023-04-15T11:07:49;-22928.91;;;16.77;39.95
5296;BME280;2670;42.720;23.336;2023-04-15T11:10:50;-22928.63;;;16.76;37.52
5296;BME280;2670;42.720;23.336;2023-04-15T11:13:20;-22931.28;;;16.85;37.65
5296;BME280;2670;42.720;23.336;2023-04-15T11:15:48;-22931.41;;;16.86;36.75
5296;BME280;2670;42.720;23.336;2023-04-15T11:18:17;-22932.16;;;16.88;37.79
5296;BME280;2670;42.720;23.336;2023-04-15T11:20:46;-22934.66;;;16.97;38.07
5296;BME280;2670;42.720;23.336;2023-04-15T11:23:16;-22939.34;;;17.13;38.64
5296;BME280;2670;42.720;23.336;2023-04-15T11:25:43;-22937.44;;;17.07;37.28
5296;BME280;2670;42.720;23.336;2023-04-15T11:28:11;-22936.13;;;17.02;36.56
5296;BME280;2670;42.720;23.336;2023-04-15T11:30:38;-22941.41;;;17.21;37.12
5296;BME280;2670;42.720;23.336;2023-04-15T11:33:07;-22946.13;;;17.37;36.36
5296;BME280;2670;42.720;23.336;2023-04-15T11:35:34;-22945.66;;;17.35;37.29
5296;BME280;2670;42.720;23.336;2023-04-15T11:38:07;-22947.00;;;17.40;36.92
5296;BME280;2670;42.720;23.336;2023-04-15T11:40:35;-22949.78;;;17.50;36.20
5296;BME280;2670;42.720;23.336;2023-04-15T11:43:05;-22951.09;;;17.54;36.20
5296;BME280;2670;42.720;23.336;2023-04-15T11:45:33;-22952.56;;;17.59;37.37
5296;BME280;2670;42.720;23.336;2023-04-15T11:48:05;-22955.94;;;17.71;37.21
5296;BME280;2670;42.720;23.336;2023-04-15T11:50:32;-22956.09;;;17.72;37.27
5296;BME280;2670;42.720;23.336;2023-04-15T11:53:00;-22959.03;;;17.82;37.55
5296;BME280;2670;42.720;23.336;2023-04-15T11:55:29;-22963.00;;;17.96;37.76
5296;BME280;2670;42.720;23.336;2023-04-15T11:58:07;-22963.44;;;17.97;37.55
5296;BME280;2670;42.720;23.336;2023-04-15T12:00:36;-22964.78;;;18.02;37.37
5296;BME280;2670;42.720;23.336;2023-04-15T12:03:16;-22964.78;;;18.02;35.25
5296;BME280;2670;42.720;23.336;2023-04-15T12:06:14;-22960.06;;;17.85;35.85
5296;BME280;2670;42.720;23.336;2023-04-15T12:08:57;-22963.44;;;17.97;35.55
5296;BME280;2670;42.720;23.336;2023-04-15T12:11:31;-22964.47;;;18.01;35.42
5296;BME280;2670;42.720;23.336;2023-04-15T12:14:02;-22963.44;;;17.97;36.63
5296;BME280;2670;42.720;23.336;2023-04-15T12:16:29;-22962.72;;;17.95;36.01
5296;BME280;2670;42.720;23.336;2023-04-15T12:18:58;-22955.22;;;17.68;35.63
5296;BME280;2670;42.720;23.336;2023-04-15T12:21:27;-22958.59;;;17.80;36.66
5296;BME280;2670;42.720;23.336;2023-04-15T12:23:56;-22955.94;;;17.71;34.72
5296;BME280;2670;42.720;23.336;2023-04-15T12:26:27;-22961.84;;;17.91;35.07
5296;BME280;2670;42.720;23.336;2023-04-15T12:28:58;-22967.09;;;18.10;33.04
5296;BME280;2670;42.720;23.336;2023-04-15T12:31:26;-22966.09;;;18.06;33.74
5296;BME280;2670;42.720;23.336;2023-04-15T12:33:54;-22963.59;;;17.98;33.89
5296;BME280;2670;42.720;23.336;2023-04-15T12:36:21;-22966.22;;;18.07;33.02
5296;BME280;2670;42.720;23.336;2023-04-15T12:38:47;-22968.59;;;18.15;33.04
5296;BME280;2670;42.720;23.336;2023-04-15T12:41:14;-22968.00;;;18.13;33.47
5296;BME280;2670;42.720;23.336;2023-04-15T12:43:43;-22966.81;;;18.09;32.76
5296;BME280;2670;42.720;23.336;2023-04-15T12:46:11;-22968.00;;;18.13;32.95
5296;BME280;2670;42.720;23.336;2023-04-15T12:48:39;-22967.41;;;18.11;32.84
5296;BME280;2670;42.720;23.336;2023-04-15T12:51:06;-22971.22;;;18.24;32.56
5296;BME280;2670;42.720;23.336;2023-04-15T12:53:32;-22970.50;;;18.22;33.09
5296;BME280;2670;42.720;23.336;2023-04-15T12:55:59;-22972.69;;;18.29;33.37
5296;BME280;2670;42.720;23.336;2023-04-15T12:58:26;-22975.03;;;18.37;32.96
5296;BME280;2670;42.720;23.336;2023-04-15T13:00:52;-22978.13;;;18.48;32.93
5296;BME280;2670;42.720;23.336;2023-04-15T13:03:20;-22976.22;;;18.41;33.21
5296;BME280;2670;42.720;23.336;2023-04-15T13:05:47;-22975.63;;;18.39;33.29
5296;BME280;2670;42.720;23.336;2023-04-15T13:08:14;-22975.03;;;18.37;33.11